sensor_id;sensor_type;location;lat;lon;timestamp;pressure;altitude;pressure_sealevel;temperature;humidity
56074;BME280;41950;55.840;37.442;2023-03-15T00:00:44;98988.41;;;4.01;54.93
56074;BME280;41950;55.840;37.442;2023-03-15T00:03:10;98976.47;;;3.91;54.79
56074;BME280;41950;55.840;37.442;2023-03-15T00:05:36;98955.09;;;3.77;54.67
56074;BME280;41950;55.840;37.442;2023-03-15T00:08:02;98991.84;;;4.02;54.89
56074;BME280;41950;55.840;37.442;2023-03-15T00:10:28;98991.81;;;4.03;54.43
56074;BME280;41950;55.840;37.442;2023-03-15T00:12:54;99003.78;;;4.09;54.68
56074;BME280;41950;55.840;37.442;2023-03-15T00:15:19;98966.19;;;3.82;54.93
56074;BME280;41950;55.840;37.442;2023-03-15T00:17:45;98924.34;;;3.45;55.41
56074;BME280;41950;55.840;37.442;2023-03-15T00:20:11;98998.72;;;3.94;55.47
56074;BME280;41950;55.840;37.442;2023-03-15T00:22:39;98994.44;;;3.82;55.71
56074;BME280;41950;55.840;37.442;2023-03-15T00:25:06;98963.66;;;3.67;55.58
56074;BME280;41950;55.840;37.442;2023-03-15T00:27:32;98959.38;;;3.69;55.79
56074;BME280;41950;55.840;37.442;2023-03-15T00:29:57;98977.34;;;3.73;55.91
56074;BME280;41950;55.840;37.442;2023-03-15T00:32:23;98993.56;;;3.91;56.19
56074;BME280;41950;55.840;37.442;2023-03-15T00:34:49;98950.84;;;3.62;56.10
56074;BME280;41950;55.840;37.442;2023-03-15T00:37:15;98990.16;;;3.89;56.28
56074;BME280;41950;55.840;37.442;2023-03-15T00:39:42;98955.97;;;3.68;56.49
56074;BME280;41950;55.840;37.442;2023-03-15T00:42:11;98996.16;;;3.86;56.86
56074;BME280;41950;55.840;37.442;2023-03-15T00:44:43;98985.88;;;3.86;56.79
56074;BME280;41950;55.840;37.442;2023-03-15T00:47:11;98993.59;;;3.86;57.41
56074;BME280;41950;55.840;37.442;2023-03-15T00:49:37;98993.59;;;3.89;57.24
56074;BME280;41950;55.840;37.442;2023-03-15T00:52:03;98984.16;;;3.91;56.78
56074;BME280;41950;55.840;37.442;2023-03-15T00:54:29;98958.50;;;3.73;56.72
56074;BME280;41950;55.840;37.442;2023-03-15T00:56:59;98994.41;;;4.00;57.13
56074;BME280;41950;55.840;37.442;2023-03-15T00:59:24;99000.41;;;3.96;57.21
56074;BME280;41950;55.840;37.442;2023-03-15T01:01:50;98996.13;;;3.95;56.89
56074;BME280;41950;55.840;37.442;2023-03-15T01:04:16;98988.44;;;3.92;57.16
56074;BME280;41950;55.840;37.442;2023-03-15T01:06:41;98980.75;;;3.79;57.32
56074;BME280;41950;55.840;37.442;2023-03-15T01:09:10;98979.06;;;3.73;57.68
56074;BME280;41950;55.840;37.442;2023-03-15T01:11:36;98955.13;;;3.62;57.86
56074;BME280;41950;55.840;37.442;2023-03-15T01:14:02;98969.66;;;3.70;57.68
56074;BME280;41950;55.840;37.442;2023-03-15T01:16:33;98992.72;;;3.89;57.78
56074;BME280;41950;55.840;37.442;2023-03-15T01:18:59;98991.03;;;3.86;57.72
56074;BME280;41950;55.840;37.442;2023-03-15T01:21:24;98966.22;;;3.75;57.88
56074;BME280;41950;55.840;37.442;2023-03-15T01:23:50;98997.00;;;3.90;57.99
56074;BME280;41950;55.840;37.442;2023-03-15T01:26:17;98905.53;;;3.43;58.03
56074;BME280;41950;55.840;37.442;2023-03-15T01:28:43;98991.03;;;3.88;58.12
56074;BME280;41950;55.840;37.442;2023-03-15T01:31:19;98997.00;;;3.90;58.12
56074;BME280;41950;55.840;37.442;2023-03-15T01:33:45;98958.53;;;3.68;58.34
56074;BME280;41950;55.840;37.442;2023-03-15T01:36:11;98973.91;;;3.85;58.50
56074;BME280;41950;55.840;37.442;2023-03-15T01:38:37;98935.41;;;3.73;57.88
56074;BME280;41950;55.840;37.442;2023-03-15T01:41:03;98989.25;;;4.05;58.07
56074;BME280;41950;55.840;37.442;2023-03-15T01:43:30;98992.66;;;4.09;57.84
56074;BME280;41950;55.840;37.442;2023-03-15T01:51:06;98999.50;;;4.20;57.88
56074;BME280;41950;55.840;37.442;2023-03-15T01:53:34;98989.25;;;4.19;57.94
56074;BME280;41950;55.840;37.442;2023-03-15T01:56:02;98936.25;;;3.93;57.90
56074;BME280;41950;55.840;37.442;2023-03-15T01:58:28;98924.28;;;3.86;58.06
56074;BME280;41950;55.840;37.442;2023-03-15T02:00:55;98979.81;;;4.21;57.52
56074;BME280;41950;55.840;37.442;2023-03-15T02:03:24;98984.06;;;4.26;57.57
56074;BME280;41950;55.840;37.442;2023-03-15T02:06:00;98965.28;;;4.08;58.30
56074;BME280;41950;55.840;37.442;2023-03-15T02:08:31;98951.63;;;3.96;58.38
56074;BME280;41950;55.840;37.442;2023-03-15T02:11:00;98971.31;;;4.00;58.32
56074;BME280;41950;55.840;37.442;2023-03-15T02:13:28;98976.47;;;3.94;58.67
56074;BME280;41950;55.840;37.442;2023-03-15T02:15:55;99001.22;;;4.09;58.72
56074;BME280;41950;55.840;37.442;2023-03-15T02:18:21;98998.69;;;3.98;58.86
56074;BME280;41950;55.840;37.442;2023-03-15T02:21:12;99000.38;;;4.04;58.94
56074;BME280;41950;55.840;37.442;2023-03-15T02:23:39;99002.97;;;4.02;59.00
56074;BME280;41950;55.840;37.442;2023-03-15T02:28:46;98968.75;;;3.82;59.27
56074;BME280;41950;55.840;37.442;2023-03-15T02:31:12;98967.91;;;3.89;59.11
56074;BME280;41950;55.840;37.442;2023-03-15T02:33:48;99011.50;;;4.08;59.03
56074;BME280;41950;55.840;37.442;2023-03-15T02:38:45;98995.28;;;3.98;59.48
56074;BME280;41950;55.840;37.442;2023-03-15T02:41:11;98991.03;;;3.89;59.66
56074;BME280;41950;55.840;37.442;2023-03-15T02:43:40;98992.72;;;3.96;59.64
56074;BME280;41950;55.840;37.442;2023-03-15T02:46:06;98991.00;;;3.95;59.84
56074;BME280;41950;55.840;37.442;2023-03-15T02:48:33;98960.22;;;3.74;60.04
56074;BME280;41950;55.840;37.442;2023-03-15T02:50:59;98974.75;;;3.80;60.39
56074;BME280;41950;55.840;37.442;2023-03-15T02:53:28;98999.56;;;3.91;60.46
56074;BME280;41950;55.840;37.442;2023-03-15T02:55:54;98941.44;;;3.54;60.40
56074;BME280;41950;55.840;37.442;2023-03-15T02:58:19;98998.72;;;3.88;60.82
56074;BME280;41950;55.840;37.442;2023-03-15T03:00:45;98983.34;;;3.71;60.55
56074;BME280;41950;55.840;37.442;2023-03-15T03:03:11;98940.56;;;3.49;60.81
56074;BME280;41950;55.840;37.442;2023-03-15T03:05:36;98938.88;;;3.48;60.87
56074;BME280;41950;55.840;37.442;2023-03-15T03:08:02;98973.06;;;3.66;60.70
56074;BME280;41950;55.840;37.442;2023-03-15T03:10:28;98997.88;;;3.84;60.81
56074;BME280;41950;55.840;37.442;2023-03-15T03:12:54;98996.13;;;3.83;60.88
56074;BME280;41950;55.840;37.442;2023-03-15T03:15:20;98985.88;;;3.77;60.98
56074;BME280;41950;55.840;37.442;2023-03-15T03:17:46;98992.72;;;3.72;60.94
56074;BME280;41950;55.840;37.442;2023-03-15T03:20:12;99003.84;;;3.76;60.89
56074;BME280;41950;55.840;37.442;2023-03-15T03:22:39;99006.41;;;3.80;61.10
56074;BME280;41950;55.840;37.442;2023-03-15T03:25:07;99008.13;;;3.77;61.21
56074;BME280;41950;55.840;37.442;2023-03-15T03:27:34;98983.34;;;3.62;61.06
56074;BME280;41950;55.840;37.442;2023-03-15T03:30:06;99011.53;;;3.79;61.08
56074;BME280;41950;55.840;37.442;2023-03-15T03:32:32;98998.75;;;3.65;60.93
56074;BME280;41950;55.840;37.442;2023-03-15T03:34:58;99006.44;;;3.71;60.84
56074;BME280;41950;55.840;37.442;2023-03-15T03:37:24;98981.63;;;3.55;61.16
56074;BME280;41950;55.840;37.442;2023-03-15T03:39:50;99023.53;;;3.78;61.56
56074;BME280;41950;55.840;37.442;2023-03-15T03:42:16;99024.38;;;3.76;61.39
56074;BME280;41950;55.840;37.442;2023-03-15T03:44:41;99020.97;;;3.63;61.42
56074;BME280;41950;55.840;37.442;2023-03-15T03:47:07;98997.03;;;3.47;61.55
56074;BME280;41950;55.840;37.442;2023-03-15T03:49:33;99001.28;;;3.50;61.51
56074;BME280;41950;55.840;37.442;2023-03-15T03:51:58;99025.25;;;3.64;61.55
56074;BME280;41950;55.840;37.442;2023-03-15T03:54:26;99032.94;;;3.68;61.39
56074;BME280;41950;55.840;37.442;2023-03-15T03:56:51;98995.28;;;3.55;61.22
56074;BME280;41950;55.840;37.442;2023-03-15T03:59:17;99018.41;;;3.66;61.36
56074;BME280;41950;55.840;37.442;2023-03-15T04:01:43;99026.09;;;3.75;61.21
56074;BME280;41950;55.840;37.442;2023-03-15T04:04:08;99028.66;;;3.75;61.42
56074;BME280;41950;55.840;37.442;2023-03-15T04:06:39;99034.66;;;3.76;61.48
56074;BME280;41950;55.840;37.442;2023-03-15T04:09:14;99021.81;;;3.71;61.13
56074;BME280;41950;55.840;37.442;2023-03-15T04:11:43;99000.44;;;3.61;61.05
56074;BME280;41950;55.840;37.442;2023-03-15T04:14:09;98991.91;;;3.56;61.15
56074;BME280;41950;55.840;37.442;2023-03-15T04:16:35;99021.81;;;3.83;60.97
56074;BME280;41950;55.840;37.442;2023-03-15T04:19:01;99014.97;;;3.82;61.00
56074;BME280;41950;55.840;37.442;2023-03-15T04:21:28;99026.09;;;3.89;60.81
56074;BME280;41950;55.840;37.442;2023-03-15T04:24:02;99030.38;;;3.94;60.51
56074;BME280;41950;55.840;37.442;2023-03-15T04:26:27;99020.97;;;3.90;60.40
56074;BME280;41950;55.840;37.442;2023-03-15T04:28:54;98998.72;;;3.80;60.37
56074;BME280;41950;55.840;37.442;2023-03-15T04:31:21;99019.22;;;4.04;59.95
56074;BME280;41950;55.840;37.442;2023-03-15T04:33:55;99026.94;;;4.01;60.19
56074;BME280;41950;55.840;37.442;2023-03-15T04:36:21;98973.94;;;3.68;60.23
56074;BME280;41950;55.840;37.442;2023-03-15T04:38:48;98990.16;;;3.73;60.33
56074;BME280;41950;55.840;37.442;2023-03-15T04:41:15;99045.75;;;4.03;60.19
56074;BME280;41950;55.840;37.442;2023-03-15T04:43:41;99023.53;;;3.89;60.14
56074;BME280;41950;55.840;37.442;2023-03-15T04:46:07;99052.59;;;4.04;59.99
56074;BME280;41950;55.840;37.442;2023-03-15T04:48:33;99035.50;;;3.94;60.06
56074;BME280;41950;55.840;37.442;2023-03-15T04:50:59;99048.31;;;4.07;59.99
56074;BME280;41950;55.840;37.442;2023-03-15T04:53:25;99057.72;;;4.08;60.00
56074;BME280;41950;55.840;37.442;2023-03-15T04:55:51;99026.94;;;3.92;59.72
56074;BME280;41950;55.840;37.442;2023-03-15T04:58:17;99030.38;;;3.84;60.01
56074;BME280;41950;55.840;37.442;2023-03-15T05:00:42;99074.00;;;4.05;60.02
56074;BME280;41950;55.840;37.442;2023-03-15T05:03:08;99051.78;;;3.89;59.62
56074;BME280;41950;55.840;37.442;2023-03-15T05:05:34;99036.34;;;3.81;59.84
56074;BME280;41950;55.840;37.442;2023-03-15T05:07:59;99076.53;;;4.10;59.22
56074;BME280;41950;55.840;37.442;2023-03-15T05:10:26;99084.28;;;4.13;59.36
56074;BME280;41950;55.840;37.442;2023-03-15T05:12:54;99076.56;;;4.07;59.25
56074;BME280;41950;55.840;37.442;2023-03-15T05:15:20;99080.84;;;4.09;58.81
56074;BME280;41950;55.840;37.442;2023-03-15T05:17:45;99021.81;;;3.82;58.89
56074;BME280;41950;55.840;37.442;2023-03-15T05:20:13;99026.94;;;3.92;58.77
56074;BME280;41950;55.840;37.442;2023-03-15T05:22:40;99072.25;;;4.27;58.55
56074;BME280;41950;55.840;37.442;2023-03-15T05:25:08;99094.50;;;4.48;58.00
56074;BME280;41950;55.840;37.442;2023-03-15T05:27:34;99047.41;;;4.29;57.48
56074;BME280;41950;55.840;37.442;2023-03-15T05:30:00;99091.00;;;4.61;57.77
56074;BME280;41950;55.840;37.442;2023-03-15T05:32:30;99097.00;;;4.64;57.23
56074;BME280;41950;55.840;37.442;2023-03-15T05:35:02;99085.88;;;4.59;57.19
56074;BME280;41950;55.840;37.442;2023-03-15T05:37:29;99090.16;;;4.63;57.53
56074;BME280;41950;55.840;37.442;2023-03-15T05:39:57;99079.03;;;4.60;57.00
56074;BME280;41950;55.840;37.442;2023-03-15T05:42:23;99083.31;;;4.69;56.58
56074;BME280;41950;55.840;37.442;2023-03-15T05:44:52;99080.75;;;4.58;56.62
56074;BME280;41950;55.840;37.442;2023-03-15T05:47:21;99113.28;;;4.74;57.02
56074;BME280;41950;55.840;37.442;2023-03-15T05:49:48;99097.00;;;4.64;57.00
56074;BME280;41950;55.840;37.442;2023-03-15T05:52:15;99099.56;;;4.72;56.64
56074;BME280;41950;55.840;37.442;2023-03-15T05:54:40;99115.81;;;4.82;56.82
56074;BME280;41950;55.840;37.442;2023-03-15T05:57:06;99113.19;;;4.91;56.44
56074;BME280;41950;55.840;37.442;2023-03-15T05:59:32;99096.94;;;4.84;56.35
56074;BME280;41950;55.840;37.442;2023-03-15T06:01:58;99121.75;;;4.99;55.95
56074;BME280;41950;55.840;37.442;2023-03-15T06:04:24;99114.03;;;4.99;55.90
56074;BME280;41950;55.840;37.442;2023-03-15T06:06:50;99108.06;;;4.97;55.61
56074;BME280;41950;55.840;37.442;2023-03-15T06:09:16;99108.03;;;4.99;55.44
56074;BME280;41950;55.840;37.442;2023-03-15T06:11:42;99114.03;;;5.01;55.67
56074;BME280;41950;55.840;37.442;2023-03-15T06:14:07;99116.56;;;5.08;55.41
56074;BME280;41950;55.840;37.442;2023-03-15T06:16:33;99095.97;;;5.10;54.71
56074;BME280;41950;55.840;37.442;2023-03-15T06:18:59;99130.97;;;5.43;54.57
56074;BME280;41950;55.840;37.442;2023-03-15T06:21:24;99102.66;;;5.43;53.56
56074;BME280;41950;55.840;37.442;2023-03-15T06:23:50;99133.41;;;5.69;53.13
56074;BME280;41950;55.840;37.442;2023-03-15T06:26:16;99133.31;;;5.81;53.05
